Terminal Aerodrome Forecast
Issued by NWS

Home | Current Version | Previous Version | Text Only | Print | Product List | Glossary On
Versions: 1 2 3 4 5 6 7 8 9 10 11 12 13 14 15 16
000
FTUS46 KMFR 230543
TAFRBG
TAF
KRBG 230543Z 2306/2406 17005KT P6SM SCT040 BKN080
     FM231200 17003KT 4SM BR FEW003 BKN012 BKN035
     FM231900 15006KT P6SM SCT020 BKN050
     FM240100 VRB03KT P6SM SCT060 BKN120=

USA.gov is the U.S. government's official web portal to all federal, state and local government web resources and services.